sensor_id;sensor_type;location;lat;lon;timestamp;pressure;altitude;pressure_sealevel;temperature;humidity
59106;BME280;44891;50.204;8.132;2023-03-03T00:01:16;98550.44;;;-0.38;70.27
59106;BME280;44891;50.204;8.132;2023-03-03T00:05:18;98557.69;;;-0.09;68.81
59106;BME280;44891;50.204;8.132;2023-03-03T00:09:21;98564.13;;;-0.37;69.92
59106;BME280;44891;50.204;8.132;2023-03-03T00:13:23;98568.50;;;-0.13;69.02
59106;BME280;44891;50.204;8.132;2023-03-03T00:17:27;98569.94;;;-0.27;68.94
59106;BME280;44891;50.204;8.132;2023-03-03T00:21:29;98575.59;;;-0.23;69.13
59106;BME280;44891;50.204;8.132;2023-03-03T00:25:33;98573.50;;;-0.28;69.28
59106;BME280;44891;50.204;8.132;2023-03-03T00:29:36;98585.75;;;-0.30;69.24
59106;BME280;44891;50.204;8.132;2023-03-03T00:33:42;98591.88;;;-0.31;69.48
59106;BME280;44891;50.204;8.132;2023-03-03T00:37:46;98587.19;;;-0.44;69.78
59106;BME280;44891;50.204;8.132;2023-03-03T00:41:50;98589.50;;;-0.83;72.11
59106;BME280;44891;50.204;8.132;2023-03-03T00:45:53;98578.13;;;-0.48;70.99
59106;BME280;44891;50.204;8.132;2023-03-03T00:50:12;98578.81;;;-0.30;69.93
59106;BME280;44891;50.204;8.132;2023-03-03T00:54:17;98578.81;;;-0.30;69.28
59106;BME280;44891;50.204;8.132;2023-03-03T00:58:21;98587.00;;;-0.59;71.20
59106;BME280;44891;50.204;8.132;2023-03-03T01:02:25;98582.47;;;-0.65;71.95
59106;BME280;44891;50.204;8.132;2023-03-03T01:06:27;98578.50;;;-0.93;73.57
59106;BME280;44891;50.204;8.132;2023-03-03T01:10:30;98580.69;;;-0.72;72.37
59106;BME280;44891;50.204;8.132;2023-03-03T01:14:35;98595.19;;;-0.63;71.87
59106;BME280;44891;50.204;8.132;2023-03-03T01:18:37;98578.94;;;-0.56;72.04
59106;BME280;44891;50.204;8.132;2023-03-03T01:22:39;98577.97;;;-0.55;71.79
59106;BME280;44891;50.204;8.132;2023-03-03T01:26:43;98570.91;;;-0.52;71.43
59106;BME280;44891;50.204;8.132;2023-03-03T01:30:46;98576.69;;;-0.59;71.15
59106;BME280;44891;50.204;8.132;2023-03-03T01:34:48;98580.88;;;-0.66;72.26
59106;BME280;44891;50.204;8.132;2023-03-03T01:38:50;98584.34;;;-0.83;73.88
59106;BME280;44891;50.204;8.132;2023-03-03T01:42:52;98571.47;;;-0.75;73.58
59106;BME280;44891;50.204;8.132;2023-03-03T01:47:05;98571.00;;;-0.78;74.34
59106;BME280;44891;50.204;8.132;2023-03-03T01:51:09;98575.38;;;-0.55;73.04
59106;BME280;44891;50.204;8.132;2023-03-03T01:55:16;98574.41;;;-0.62;72.23
59106;BME280;44891;50.204;8.132;2023-03-03T01:59:22;98564.97;;;-0.87;73.34
59106;BME280;44891;50.204;8.132;2023-03-03T02:03:26;98564.72;;;-0.76;73.52
59106;BME280;44891;50.204;8.132;2023-03-03T02:07:28;98553.25;;;-0.73;73.36
59106;BME280;44891;50.204;8.132;2023-03-03T02:11:31;98557.31;;;-0.71;73.48
59106;BME280;44891;50.204;8.132;2023-03-03T02:15:36;98563.09;;;-0.69;72.60
59106;BME280;44891;50.204;8.132;2023-03-03T02:19:41;98560.75;;;-1.04;73.90
59106;BME280;44891;50.204;8.132;2023-03-03T02:23:49;98562.44;;;-1.21;75.51
59106;BME280;44891;50.204;8.132;2023-03-03T02:27:56;98565.25;;;-1.41;77.53
59106;BME280;44891;50.204;8.132;2023-03-03T02:31:58;98568.75;;;-1.16;76.51
59106;BME280;44891;50.204;8.132;2023-03-03T02:36:00;98570.13;;;-1.29;78.36
59106;BME280;44891;50.204;8.132;2023-03-03T02:40:02;98573.47;;;-1.03;76.30
59106;BME280;44891;50.204;8.132;2023-03-03T02:44:07;98584.22;;;-1.16;74.92
59106;BME280;44891;50.204;8.132;2023-03-03T02:48:10;98585.78;;;-1.57;77.15
59106;BME280;44891;50.204;8.132;2023-03-03T02:52:12;98592.16;;;-1.61;78.86
59106;BME280;44891;50.204;8.132;2023-03-03T02:56:19;98584.19;;;-1.50;77.89
59106;BME280;44891;50.204;8.132;2023-03-03T03:00:23;98571.31;;;-1.50;79.16
59106;BME280;44891;50.204;8.132;2023-03-03T03:04:25;98577.97;;;-1.39;78.32
59106;BME280;44891;50.204;8.132;2023-03-03T03:08:28;98570.31;;;-1.31;76.74
59106;BME280;44891;50.204;8.132;2023-03-03T03:12:30;98575.53;;;-1.15;75.04
59106;BME280;44891;50.204;8.132;2023-03-03T03:16:35;98578.44;;;-1.10;74.34
59106;BME280;44891;50.204;8.132;2023-03-03T03:20:37;98572.56;;;-1.28;75.63
59106;BME280;44891;50.204;8.132;2023-03-03T03:24:42;98575.38;;;-1.39;76.90
59106;BME280;44891;50.204;8.132;2023-03-03T03:28:44;98577.31;;;-1.41;77.77
59106;BME280;44891;50.204;8.132;2023-03-03T03:32:47;98586.16;;;-1.70;79.92
59106;BME280;44891;50.204;8.132;2023-03-03T03:36:49;98582.38;;;-1.57;78.50
59106;BME280;44891;50.204;8.132;2023-03-03T03:40:53;98585.25;;;-1.60;78.38
59106;BME280;44891;50.204;8.132;2023-03-03T03:44:55;98592.28;;;-1.71;78.71
59106;BME280;44891;50.204;8.132;2023-03-03T03:48:58;98599.47;;;-1.74;79.52
59106;BME280;44891;50.204;8.132;2023-03-03T03:53:01;98596.56;;;-1.53;77.59
59106;BME280;44891;50.204;8.132;2023-03-03T03:57:04;98596.34;;;-1.60;76.81
59106;BME280;44891;50.204;8.132;2023-03-03T04:01:06;98588.19;;;-1.55;76.34
59106;BME280;44891;50.204;8.132;2023-03-03T04:05:15;98584.25;;;-1.68;75.76
59106;BME280;44891;50.204;8.132;2023-03-03T04:09:17;98593.00;;;-1.78;76.63
59106;BME280;44891;50.204;8.132;2023-03-03T04:13:19;98600.00;;;-1.71;77.38
59106;BME280;44891;50.204;8.132;2023-03-03T04:17:23;98596.34;;;-1.60;76.51
59106;BME280;44891;50.204;8.132;2023-03-03T04:21:26;98596.28;;;-2.12;79.29
59106;BME280;44891;50.204;8.132;2023-03-03T04:25:31;98596.91;;;-1.74;79.19
59106;BME280;44891;50.204;8.132;2023-03-03T04:29:33;98596.75;;;-1.73;77.43
59106;BME280;44891;50.204;8.132;2023-03-03T04:33:36;98592.06;;;-1.77;76.22
59106;BME280;44891;50.204;8.132;2023-03-03T04:37:40;98597.25;;;-1.95;76.82
59106;BME280;44891;50.204;8.132;2023-03-03T04:41:43;98603.34;;;-1.96;77.14
59106;BME280;44891;50.204;8.132;2023-03-03T04:45:45;98605.59;;;-1.93;78.57
59106;BME280;44891;50.204;8.132;2023-03-03T04:49:48;98599.28;;;-1.99;80.58
59106;BME280;44891;50.204;8.132;2023-03-03T04:53:51;98588.91;;;-1.71;78.33
59106;BME280;44891;50.204;8.132;2023-03-03T04:57:53;98587.59;;;-1.93;79.79
59106;BME280;44891;50.204;8.132;2023-03-03T05:01:55;98593.00;;;-2.04;78.88
59106;BME280;44891;50.204;8.132;2023-03-03T05:05:57;98596.88;;;-2.00;78.26
59106;BME280;44891;50.204;8.132;2023-03-03T05:10:00;98605.84;;;-2.04;79.43
59106;BME280;44891;50.204;8.132;2023-03-03T05:14:02;98611.22;;;-2.15;79.89
59106;BME280;44891;50.204;8.132;2023-03-03T05:18:04;98608.66;;;-2.15;80.33
59106;BME280;44891;50.204;8.132;2023-03-03T05:22:06;98620.91;;;-2.27;82.08
59106;BME280;44891;50.204;8.132;2023-03-03T05:26:09;98611.34;;;-1.99;80.77
59106;BME280;44891;50.204;8.132;2023-03-03T05:30:11;98617.66;;;-1.94;78.92
59106;BME280;44891;50.204;8.132;2023-03-03T05:34:13;98628.19;;;-2.05;78.80
59106;BME280;44891;50.204;8.132;2023-03-03T05:38:15;98615.47;;;-2.42;79.59
59106;BME280;44891;50.204;8.132;2023-03-03T05:42:18;98622.09;;;-2.22;79.59
59106;BME280;44891;50.204;8.132;2023-03-03T05:46:20;98618.81;;;-2.59;81.42
59106;BME280;44891;50.204;8.132;2023-03-03T05:50:22;98613.47;;;-2.48;81.79
59106;BME280;44891;50.204;8.132;2023-03-03T05:54:24;98620.69;;;-2.34;80.88
59106;BME280;44891;50.204;8.132;2023-03-03T05:58:27;98622.38;;;-2.42;80.50
59106;BME280;44891;50.204;8.132;2023-03-03T06:02:29;98638.13;;;-2.28;79.85
59106;BME280;44891;50.204;8.132;2023-03-03T06:06:31;98638.56;;;-2.60;81.92
59106;BME280;44891;50.204;8.132;2023-03-03T06:10:33;98636.78;;;-2.32;82.41
59106;BME280;44891;50.204;8.132;2023-03-03T06:14:40;98652.22;;;-2.14;81.64
59106;BME280;44891;50.204;8.132;2023-03-03T06:18:42;98660.59;;;-2.12;80.46
59106;BME280;44891;50.204;8.132;2023-03-03T06:22:44;98658.03;;;-2.12;79.08
59106;BME280;44891;50.204;8.132;2023-03-03T06:26:46;98661.56;;;-2.13;78.09
59106;BME280;44891;50.204;8.132;2023-03-03T06:30:49;98665.31;;;-2.07;78.31
59106;BME280;44891;50.204;8.132;2023-03-03T06:34:53;98663.84;;;-2.28;79.50
59106;BME280;44891;50.204;8.132;2023-03-03T06:38:55;98665.13;;;-2.41;81.61
59106;BME280;44891;50.204;8.132;2023-03-03T06:42:57;98664.00;;;-2.29;81.40
59106;BME280;44891;50.204;8.132;2023-03-03T06:47:00;98667.16;;;-2.17;80.88
59106;BME280;44891;50.204;8.132;2023-03-03T06:51:04;98679.50;;;-2.21;80.24
59106;BME280;44891;50.204;8.132;2023-03-03T06:55:10;98690.44;;;-2.19;80.95
59106;BME280;44891;50.204;8.132;2023-03-03T06:59:13;98700.00;;;-2.11;81.29
59106;BME280;44891;50.204;8.132;2023-03-03T07:03:17;98713.84;;;-1.95;81.86
59106;BME280;44891;50.204;8.132;2023-03-03T07:07:20;98713.47;;;-2.00;84.26
59106;BME280;44891;50.204;8.132;2023-03-03T07:11:22;98720.63;;;-1.76;86.75
59106;BME280;44891;50.204;8.132;2023-03-03T07:15:26;98726.06;;;-1.79;84.92
59106;BME280;44891;50.204;8.132;2023-03-03T07:19:33;98733.94;;;-1.80;83.81
59106;BME280;44891;50.204;8.132;2023-03-03T07:23:36;98735.84;;;-1.47;83.85
59106;BME280;44891;50.204;8.132;2023-03-03T07:27:42;98735.81;;;-1.11;87.42
59106;BME280;44891;50.204;8.132;2023-03-03T07:31:44;98745.31;;;-1.12;91.58
59106;BME280;44891;50.204;8.132;2023-03-03T07:35:48;98751.22;;;-0.93;92.80
59106;BME280;44891;50.204;8.132;2023-03-03T07:39:50;98761.59;;;-0.85;92.72
59106;BME280;44891;50.204;8.132;2023-03-03T07:43:52;98755.53;;;-0.76;92.99
59106;BME280;44891;50.204;8.132;2023-03-03T07:47:56;98768.00;;;-0.63;94.26
59106;BME280;44891;50.204;8.132;2023-03-03T07:52:15;98764.41;;;-0.44;94.78
59106;BME280;44891;50.204;8.132;2023-03-03T07:56:21;98781.69;;;-0.37;95.47
59106;BME280;44891;50.204;8.132;2023-03-03T08:04:47;98779.75;;;-0.35;96.51
59106;BME280;44891;50.204;8.132;2023-03-03T08:08:53;98780.72;;;-0.36;96.59
59106;BME280;44891;50.204;8.132;2023-03-03T08:12:55;98768.56;;;-0.09;95.42
59106;BME280;44891;50.204;8.132;2023-03-03T08:16:57;98777.47;;;-0.04;95.59
59106;BME280;44891;50.204;8.132;2023-03-03T08:20:59;98787.34;;;0.01;95.19
59106;BME280;44891;50.204;8.132;2023-03-03T08:25:03;98790.41;;;0.05;94.92
59106;BME280;44891;50.204;8.132;2023-03-03T08:29:05;98781.72;;;0.14;94.36
59106;BME280;44891;50.204;8.132;2023-03-03T08:33:07;98778.69;;;0.26;93.91
59106;BME280;44891;50.204;8.132;2023-03-03T08:37:09;98780.94;;;0.21;93.79
59106;BME280;44891;50.204;8.132;2023-03-03T08:41:12;98787.03;;;0.12;94.84
59106;BME280;44891;50.204;8.132;2023-03-03T08:45:14;98793.50;;;0.16;94.35
59106;BME280;44891;50.204;8.132;2023-03-03T08:49:18;98795.75;;;0.11;94.90
59106;BME280;44891;50.204;8.132;2023-03-03T08:53:20;98795.31;;;0.24;94.13
59106;BME280;44891;50.204;8.132;2023-03-03T08:57:24;98800.34;;;0.42;93.42
59106;BME280;44891;50.204;8.132;2023-03-03T09:01:26;98798.75;;;0.41;93.71
59106;BME280;44891;50.204;8.132;2023-03-03T09:05:28;98802.47;;;0.54;93.11
59106;BME280;44891;50.204;8.132;2023-03-03T09:09:31;98805.69;;;0.57;92.96
59106;BME280;44891;50.204;8.132;2023-03-03T09:13:34;98809.59;;;0.61;92.56
59106;BME280;44891;50.204;8.132;2023-03-03T09:17:36;98805.06;;;0.63;91.91
59106;BME280;44891;50.204;8.132;2023-03-03T09:21:38;98812.19;;;0.69;91.64
59106;BME280;44891;50.204;8.132;2023-03-03T09:25:41;98815.75;;;0.76;90.96
59106;BME280;44891;50.204;8.132;2023-03-03T09:29:45;98820.28;;;0.74;90.23
59106;BME280;44891;50.204;8.132;2023-03-03T09:33:47;98819.63;;;0.88;89.60
59106;BME280;44891;50.204;8.132;2023-03-03T09:37:51;98832.56;;;0.96;88.32
59106;BME280;44891;50.204;8.132;2023-03-03T09:41:58;98830.13;;;0.95;88.25
59106;BME280;44891;50.204;8.132;2023-03-03T09:46:07;98824.97;;;1.27;86.83
59106;BME280;44891;50.204;8.132;2023-03-03T09:50:23;98830.22;;;1.58;84.49
59106;BME280;44891;50.204;8.132;2023-03-03T09:54:30;98833.31;;;2.09;83.16
59106;BME280;44891;50.204;8.132;2023-03-03T09:58:47;98835.97;;;2.32;80.84
59106;BME280;44891;50.204;8.132;2023-03-03T10:02:58;98832.81;;;2.14;81.45
59106;BME280;44891;50.204;8.132;2023-03-03T10:07:08;98833.88;;;2.28;80.25
59106;BME280;44891;50.204;8.132;2023-03-03T10:11:16;98827.72;;;2.60;78.74
59106;BME280;44891;50.204;8.132;2023-03-03T10:15:21;98829.44;;;2.90;77.37
59106;BME280;44891;50.204;8.132;2023-03-03T10:19:32;98831.53;;;3.33;74.80
59106;BME280;44891;50.204;8.132;2023-03-03T10:24:13;98842.50;;;3.72;74.29
59106;BME280;44891;50.204;8.132;2023-03-03T10:32:38;98860.69;;;2.97;74.73
59106;BME280;44891;50.204;8.132;2023-03-03T10:36:49;98873.88;;;3.10;74.50
59106;BME280;44891;50.204;8.132;2023-03-03T10:40:56;98869.09;;;3.22;74.10
59106;BME280;44891;50.204;8.132;2023-03-03T10:49:19;98879.94;;;3.03;75.36
59106;BME280;44891;50.204;8.132;2023-03-03T10:53:26;98875.09;;;3.60;72.72
59106;BME280;44891;50.204;8.132;2023-03-03T10:57:31;98874.59;;;3.94;70.79
59106;BME280;44891;50.204;8.132;2023-03-03T11:01:39;98880.06;;;5.23;66.94
59106;BME280;44891;50.204;8.132;2023-03-03T11:05:45;98862.09;;;7.92;56.33
59106;BME280;44891;50.204;8.132;2023-03-03T11:09:58;98837.22;;;9.97;49.54
59106;BME280;44891;50.204;8.132;2023-03-03T11:14:02;98861.63;;;9.79;49.06
59106;BME280;44891;50.204;8.132;2023-03-03T11:18:15;98857.22;;;8.09;53.98
59106;BME280;44891;50.204;8.132;2023-03-03T11:22:25;98859.22;;;6.54;59.57
59106;BME280;44891;50.204;8.132;2023-03-03T11:30:53;98859.72;;;7.44;57.17
59106;BME280;44891;50.204;8.132;2023-03-03T11:35:03;98851.91;;;8.29;54.22
59106;BME280;44891;50.204;8.132;2023-03-03T11:39:15;98848.91;;;10.68;49.00
59106;BME280;44891;50.204;8.132;2023-03-03T11:43:18;98832.56;;;18.28;33.82
59106;BME280;44891;50.204;8.132;2023-03-03T11:47:24;98817.34;;;19.80;30.22
59106;BME280;44891;50.204;8.132;2023-03-03T11:51:31;98816.84;;;20.64;28.58
59106;BME280;44891;50.204;8.132;2023-03-03T11:55:35;98810.50;;;19.74;29.16
59106;BME280;44891;50.204;8.132;2023-03-03T11:59:40;98819.41;;;18.03;31.52
59106;BME280;44891;50.204;8.132;2023-03-03T12:03:46;98814.47;;;16.99;33.42
59106;BME280;44891;50.204;8.132;2023-03-03T12:07:51;98799.88;;;17.27;33.29
59106;BME280;44891;50.204;8.132;2023-03-03T12:11:56;98790.44;;;17.96;31.46
59106;BME280;44891;50.204;8.132;2023-03-03T12:16:03;98776.63;;;19.46;29.01
59106;BME280;44891;50.204;8.132;2023-03-03T12:20:11;98775.69;;;21.35;26.97
59106;BME280;44891;50.204;8.132;2023-03-03T12:24:22;98773.22;;;20.74;27.05
59106;BME280;44891;50.204;8.132;2023-03-03T12:28:29;98772.56;;;21.14;26.90
59106;BME280;44891;50.204;8.132;2023-03-03T12:32:40;98770.53;;;21.39;26.47
59106;BME280;44891;50.204;8.132;2023-03-03T12:36:57;98759.34;;;22.06;25.90
59106;BME280;44891;50.204;8.132;2023-03-03T12:41:06;98754.31;;;20.51;27.14
59106;BME280;44891;50.204;8.132;2023-03-03T12:45:23;98751.81;;;19.50;28.28
59106;BME280;44891;50.204;8.132;2023-03-03T12:49:30;98747.97;;;18.35;30.00
59106;BME280;44891;50.204;8.132;2023-03-03T12:53:41;98745.41;;;17.50;30.62
59106;BME280;44891;50.204;8.132;2023-03-03T12:57:47;98733.84;;;20.28;27.92
59106;BME280;44891;50.204;8.132;2023-03-03T13:01:57;98729.06;;;20.62;26.42
59106;BME280;44891;50.204;8.132;2023-03-03T13:06:04;98729.84;;;19.88;27.38
59106;BME280;44891;50.204;8.132;2023-03-03T13:10:11;98722.41;;;23.51;24.18
59106;BME280;44891;50.204;8.132;2023-03-03T13:14:18;98725.53;;;24.97;22.21
59106;BME280;44891;50.204;8.132;2023-03-03T13:18:27;98723.69;;;24.54;22.17
59106;BME280;44891;50.204;8.132;2023-03-03T13:22:36;98739.72;;;25.53;21.44
59106;BME280;44891;50.204;8.132;2023-03-03T13:26:40;98732.13;;;26.14;19.92
59106;BME280;44891;50.204;8.132;2023-03-03T13:30:46;98716.72;;;27.47;19.00
59106;BME280;44891;50.204;8.132;2023-03-03T13:34:50;98731.81;;;26.57;19.25
59106;BME280;44891;50.204;8.132;2023-03-03T13:38:55;98720.22;;;27.23;19.37
59106;BME280;44891;50.204;8.132;2023-03-03T13:43:00;98722.81;;;25.14;20.98
59106;BME280;44891;50.204;8.132;2023-03-03T13:47:06;98720.72;;;26.17;20.17
59106;BME280;44891;50.204;8.132;2023-03-03T13:51:17;98720.97;;;27.11;18.99
59106;BME280;44891;50.204;8.132;2023-03-03T13:55:23;98715.56;;;26.66;19.30
59106;BME280;44891;50.204;8.132;2023-03-03T13:59:32;98720.53;;;26.76;19.23
59106;BME280;44891;50.204;8.132;2023-03-03T14:03:40;98721.75;;;26.03;19.15
59106;BME280;44891;50.204;8.132;2023-03-03T14:07:48;98713.19;;;26.01;19.33
59106;BME280;44891;50.204;8.132;2023-03-03T14:11:53;98710.91;;;25.91;19.61
59106;BME280;44891;50.204;8.132;2023-03-03T14:16:00;98697.97;;;26.26;18.83
59106;BME280;44891;50.204;8.132;2023-03-03T14:20:11;98697.84;;;27.10;18.58
59106;BME280;44891;50.204;8.132;2023-03-03T14:24:17;98697.81;;;26.65;18.83
59106;BME280;44891;50.204;8.132;2023-03-03T14:28:20;98696.13;;;26.18;19.31
59106;BME280;44891;50.204;8.132;2023-03-03T14:32:24;98686.16;;;27.18;18.67
59106;BME280;44891;50.204;8.132;2023-03-03T14:36:28;98681.28;;;27.97;18.25
59106;BME280;44891;50.204;8.132;2023-03-03T14:40:32;98683.81;;;24.82;19.82
59106;BME280;44891;50.204;8.132;2023-03-03T14:44:34;98695.34;;;25.76;19.56
59106;BME280;44891;50.204;8.132;2023-03-03T14:48:38;98693.38;;;25.85;19.30
59106;BME280;44891;50.204;8.132;2023-03-03T14:52:51;98687.47;;;23.73;21.26
59106;BME280;44891;50.204;8.132;2023-03-03T14:57:06;98687.91;;;20.31;24.68
59106;BME280;44891;50.204;8.132;2023-03-03T15:01:12;98694.19;;;15.34;31.55
59106;BME280;44891;50.204;8.132;2023-03-03T15:05:22;98688.09;;;13.78;34.04
59106;BME280;44891;50.204;8.132;2023-03-03T15:09:32;98685.91;;;12.59;36.33
59106;BME280;44891;50.204;8.132;2023-03-03T15:13:36;98675.28;;;11.40;38.89
59106;BME280;44891;50.204;8.132;2023-03-03T15:17:39;98673.72;;;10.92;40.21
59106;BME280;44891;50.204;8.132;2023-03-03T15:21:44;98674.84;;;10.61;40.94
59106;BME280;44891;50.204;8.132;2023-03-03T15:25:51;98671.59;;;10.05;42.84
59106;BME280;44891;50.204;8.132;2023-03-03T15:30:00;98672.66;;;9.86;43.73
59106;BME280;44891;50.204;8.132;2023-03-03T15:34:13;98681.16;;;9.33;45.47
59106;BME280;44891;50.204;8.132;2023-03-03T15:38:27;98674.03;;;9.40;46.56
59106;BME280;44891;50.204;8.132;2023-03-03T15:42:32;98670.81;;;9.20;48.35
59106;BME280;44891;50.204;8.132;2023-03-03T15:46:42;98676.38;;;8.87;49.40
59106;BME280;44891;50.204;8.132;2023-03-03T15:50:49;98675.75;;;8.41;51.05
59106;BME280;44891;50.204;8.132;2023-03-03T15:54:59;98680.50;;;8.51;51.64
59106;BME280;44891;50.204;8.132;2023-03-03T16:03:26;98685.28;;;8.23;53.69
59106;BME280;44891;50.204;8.132;2023-03-03T16:07:34;98682.28;;;8.26;53.65
59106;BME280;44891;50.204;8.132;2023-03-03T16:11:43;98686.94;;;8.17;54.08
59106;BME280;44891;50.204;8.132;2023-03-03T16:15:50;98692.16;;;8.17;54.30
59106;BME280;44891;50.204;8.132;2023-03-03T16:19:59;98688.25;;;8.01;54.64
59106;BME280;44891;50.204;8.132;2023-03-03T16:24:05;98696.81;;;7.70;55.61
59106;BME280;44891;50.204;8.132;2023-03-03T16:28:14;98702.50;;;7.60;56.39
59106;BME280;44891;50.204;8.132;2023-03-03T16:32:20;98705.50;;;7.57;56.71
59106;BME280;44891;50.204;8.132;2023-03-03T16:36:27;98711.63;;;7.25;57.80
59106;BME280;44891;50.204;8.132;2023-03-03T16:40:31;98708.25;;;7.04;58.61
59106;BME280;44891;50.204;8.132;2023-03-03T16:44:38;98710.25;;;7.09;58.65
59106;BME280;44891;50.204;8.132;2023-03-03T16:48:44;98713.91;;;6.95;59.09
59106;BME280;44891;50.204;8.132;2023-03-03T16:52:53;98722.91;;;6.79;59.81
59106;BME280;44891;50.204;8.132;2023-03-03T16:56:59;98728.34;;;6.58;60.79
59106;BME280;44891;50.204;8.132;2023-03-03T17:01:07;98742.16;;;6.38;61.63
59106;BME280;44891;50.204;8.132;2023-03-03T17:05:13;98741.75;;;6.28;62.03
59106;BME280;44891;50.204;8.132;2023-03-03T17:09:22;98740.94;;;6.28;62.31
59106;BME280;44891;50.204;8.132;2023-03-03T17:13:39;98747.84;;;6.00;63.51
59106;BME280;44891;50.204;8.132;2023-03-03T17:17:46;98747.56;;;5.82;64.18
59106;BME280;44891;50.204;8.132;2023-03-03T17:21:55;98759.88;;;5.60;65.02
59106;BME280;44891;50.204;8.132;2023-03-03T17:26:02;98767.06;;;5.52;65.46
59106;BME280;44891;50.204;8.132;2023-03-03T17:30:10;98764.22;;;5.46;65.51
59106;BME280;44891;50.204;8.132;2023-03-03T17:34:19;98774.97;;;5.37;65.57
59106;BME280;44891;50.204;8.132;2023-03-03T17:38:25;98781.16;;;5.29;66.16
59106;BME280;44891;50.204;8.132;2023-03-03T17:42:30;98781.09;;;5.23;65.94
59106;BME280;44891;50.204;8.132;2023-03-03T17:46:35;98800.03;;;5.10;66.68
59106;BME280;44891;50.204;8.132;2023-03-03T17:59:34;98822.09;;;4.93;67.03
59106;BME280;44891;50.204;8.132;2023-03-03T18:03:46;98829.44;;;4.82;67.32
59106;BME280;44891;50.204;8.132;2023-03-03T18:07:55;98826.44;;;4.85;67.18
59106;BME280;44891;50.204;8.132;2023-03-03T18:12:03;98831.09;;;4.32;68.61
59106;BME280;44891;50.204;8.132;2023-03-03T18:16:13;98828.75;;;4.38;69.06
59106;BME280;44891;50.204;8.132;2023-03-03T18:24:52;98835.66;;;4.16;68.30
59106;BME280;44891;50.204;8.132;2023-03-03T18:29:04;98842.84;;;4.14;68.33
59106;BME280;44891;50.204;8.132;2023-03-03T18:33:10;98839.97;;;4.08;67.98
59106;BME280;44891;50.204;8.132;2023-03-03T18:41:29;98853.56;;;3.37;70.41
59106;BME280;44891;50.204;8.132;2023-03-03T18:45:48;98853.84;;;3.04;70.44
59106;BME280;44891;50.204;8.132;2023-03-03T18:49:56;98856.16;;;2.99;71.19
59106;BME280;44891;50.204;8.132;2023-03-03T18:54:06;98862.28;;;2.75;71.84
59106;BME280;44891;50.204;8.132;2023-03-03T18:58:32;98863.53;;;2.56;73.35
59106;BME280;44891;50.204;8.132;2023-03-03T19:02:35;98864.44;;;2.71;72.05
59106;BME280;44891;50.204;8.132;2023-03-03T19:11:00;98876.56;;;2.48;73.40
59106;BME280;44891;50.204;8.132;2023-03-03T19:15:06;98874.75;;;2.49;73.42
59106;BME280;44891;50.204;8.132;2023-03-03T19:19:13;98875.75;;;2.48;72.83
59106;BME280;44891;50.204;8.132;2023-03-03T19:23:16;98878.69;;;2.44;73.40
59106;BME280;44891;50.204;8.132;2023-03-03T19:27:25;98882.41;;;2.42;72.21
59106;BME280;44891;50.204;8.132;2023-03-03T19:31:30;98884.19;;;2.02;74.13
59106;BME280;44891;50.204;8.132;2023-03-03T19:35:36;98884.84;;;1.96;74.48
59106;BME280;44891;50.204;8.132;2023-03-03T19:39:55;98894.56;;;1.94;75.03
59106;BME280;44891;50.204;8.132;2023-03-03T19:44:05;98888.00;;;1.51;78.53
59106;BME280;44891;50.204;8.132;2023-03-03T19:48:11;98894.63;;;1.61;78.28
59106;BME280;44891;50.204;8.132;2023-03-03T19:52:17;98888.97;;;1.58;78.14
59106;BME280;44891;50.204;8.132;2023-03-03T19:56:25;98888.16;;;1.74;77.40
59106;BME280;44891;50.204;8.132;2023-03-03T20:00:35;98891.66;;;1.89;74.39
59106;BME280;44891;50.204;8.132;2023-03-03T20:04:51;98893.66;;;1.05;77.70
59106;BME280;44891;50.204;8.132;2023-03-03T20:08:57;98903.06;;;1.06;80.23
59106;BME280;44891;50.204;8.132;2023-03-03T20:13:13;98904.50;;;1.25;80.39
59106;BME280;44891;50.204;8.132;2023-03-03T20:21:54;98906.09;;;1.02;78.28
59106;BME280;44891;50.204;8.132;2023-03-03T20:26:00;98912.09;;;1.02;77.90
59106;BME280;44891;50.204;8.132;2023-03-03T20:30:04;98915.47;;;0.95;79.06
59106;BME280;44891;50.204;8.132;2023-03-03T20:34:09;98916.28;;;1.12;78.14
59106;BME280;44891;50.204;8.132;2023-03-03T20:38:16;98911.47;;;1.17;77.30
59106;BME280;44891;50.204;8.132;2023-03-03T20:42:26;98921.09;;;0.74;80.63
59106;BME280;44891;50.204;8.132;2023-03-03T20:46:34;98911.75;;;0.97;79.46
59106;BME280;44891;50.204;8.132;2023-03-03T20:50:43;98925.19;;;1.17;77.50
59106;BME280;44891;50.204;8.132;2023-03-03T20:54:53;98922.25;;;0.88;77.83
59106;BME280;44891;50.204;8.132;2023-03-03T20:59:00;98917.19;;;0.70;78.16
59106;BME280;44891;50.204;8.132;2023-03-03T21:03:08;98917.63;;;0.49;78.53
59106;BME280;44891;50.204;8.132;2023-03-03T21:07:21;98925.22;;;0.50;78.47
59106;BME280;44891;50.204;8.132;2023-03-03T21:11:39;98926.59;;;0.37;80.55
59106;BME280;44891;50.204;8.132;2023-03-03T21:15:42;98926.88;;;0.60;79.79
59106;BME280;44891;50.204;8.132;2023-03-03T21:19:44;98929.78;;;0.65;78.21
59106;BME280;44891;50.204;8.132;2023-03-03T21:23:45;98927.19;;;0.65;78.97
59106;BME280;44891;50.204;8.132;2023-03-03T21:27:48;98927.00;;;0.58;77.77
59106;BME280;44891;50.204;8.132;2023-03-03T21:31:51;98840.94;;;0.07;76.91
59106;BME280;44891;50.204;8.132;2023-03-03T21:35:56;98927.56;;;0.36;78.06
59106;BME280;44891;50.204;8.132;2023-03-03T21:40:10;98928.03;;;0.31;78.84
59106;BME280;44891;50.204;8.132;2023-03-03T21:48:41;98927.84;;;0.24;79.26
59106;BME280;44891;50.204;8.132;2023-03-03T21:52:43;98929.38;;;0.09;79.49
59106;BME280;44891;50.204;8.132;2023-03-03T21:56:45;98928.63;;;0.17;79.39
59106;BME280;44891;50.204;8.132;2023-03-03T22:00:47;98927.97;;;0.15;78.59
59106;BME280;44891;50.204;8.132;2023-03-03T22:04:50;98934.59;;;0.17;78.18
59106;BME280;44891;50.204;8.132;2023-03-03T22:08:52;98931.56;;;0.22;77.47
59106;BME280;44891;50.204;8.132;2023-03-03T22:12:54;98936.63;;;0.06;78.29
59106;BME280;44891;50.204;8.132;2023-03-03T22:16:56;98936.72;;;-0.30;79.21
59106;BME280;44891;50.204;8.132;2023-03-03T22:20:59;98941.28;;;-0.24;79.90
59106;BME280;44891;50.204;8.132;2023-03-03T22:25:01;98944.47;;;-0.04;78.89
59106;BME280;44891;50.204;8.132;2023-03-03T22:29:03;98941.97;;;0.12;78.29
59106;BME280;44891;50.204;8.132;2023-03-03T22:33:05;98949.31;;;-0.01;79.30
59106;BME280;44891;50.204;8.132;2023-03-03T22:37:08;98936.78;;;-0.22;80.83
59106;BME280;44891;50.204;8.132;2023-03-03T22:41:10;98944.22;;;-0.19;80.64